sensor_id;sensor_type;location;lat;lon;timestamp;P1;durP1;ratioP1;P2;durP2;ratioP2
55762;SDS011;42162;51.958;5.426;2023-11-21T00:02:29;9.15;;;6.25;;
55762;SDS011;42162;51.958;5.426;2023-11-21T00:04:56;15.32;;;8.05;;
55762;SDS011;42162;51.958;5.426;2023-11-21T00:07:24;12.00;;;6.88;;
55762;SDS011;42162;51.958;5.426;2023-11-21T00:09:52;32.72;;;7.07;;
55762;SDS011;42162;51.958;5.426;2023-11-21T00:12:19;19.10;;;7.50;;
55762;SDS011;42162;51.958;5.426;2023-11-21T00:14:47;10.82;;;5.95;;
55762;SDS011;42162;51.958;5.426;2023-11-21T00:17:14;10.65;;;6.40;;
55762;SDS011;42162;51.958;5.426;2023-11-21T00:19:41;10.45;;;6.85;;
55762;SDS011;42162;51.958;5.426;2023-11-21T00:22:09;33.40;;;6.47;;
55762;SDS011;42162;51.958;5.426;2023-11-21T00:24:37;48.50;;;6.25;;
55762;SDS011;42162;51.958;5.426;2023-11-21T00:27:04;11.07;;;4.88;;
55762;SDS011;42162;51.958;5.426;2023-11-21T00:29:32;51.25;;;5.80;;
55762;SDS011;42162;51.958;5.426;2023-11-21T00:31:59;21.20;;;5.07;;
55762;SDS011;42162;51.958;5.426;2023-11-21T00:34:27;48.50;;;4.10;;
55762;SDS011;42162;51.958;5.426;2023-11-21T00:36:54;176.63;;;6.35;;
55762;SDS011;42162;51.958;5.426;2023-11-21T00:39:21;120.55;;;5.32;;
55762;SDS011;42162;51.958;5.426;2023-11-21T00:41:48;39.75;;;4.78;;
55762;SDS011;42162;51.958;5.426;2023-11-21T00:44:16;20.27;;;4.00;;
55762;SDS011;42162;51.958;5.426;2023-11-21T00:46:43;62.75;;;5.07;;
55762;SDS011;42162;51.958;5.426;2023-11-21T00:49:10;37.75;;;5.35;;
55762;SDS011;42162;51.958;5.426;2023-11-21T00:51:37;32.55;;;5.07;;
55762;SDS011;42162;51.958;5.426;2023-11-21T00:54:04;37.90;;;4.82;;
55762;SDS011;42162;51.958;5.426;2023-11-21T00:56:33;15.27;;;4.85;;
55762;SDS011;42162;51.958;5.426;2023-11-21T00:59:00;27.90;;;5.03;;
55762;SDS011;42162;51.958;5.426;2023-11-21T01:01:27;11.95;;;4.32;;
55762;SDS011;42162;51.958;5.426;2023-11-21T01:03:55;13.98;;;4.88;;
55762;SDS011;42162;51.958;5.426;2023-11-21T01:06:22;20.80;;;4.63;;
55762;SDS011;42162;51.958;5.426;2023-11-21T01:08:49;23.52;;;4.95;;
55762;SDS011;42162;51.958;5.426;2023-11-21T01:11:16;13.82;;;4.40;;
55762;SDS011;42162;51.958;5.426;2023-11-21T01:13:44;32.10;;;5.32;;
55762;SDS011;42162;51.958;5.426;2023-11-21T01:16:11;11.65;;;5.32;;
55762;SDS011;42162;51.958;5.426;2023-11-21T01:18:39;15.43;;;4.85;;
55762;SDS011;42162;51.958;5.426;2023-11-21T01:21:06;17.17;;;5.38;;
55762;SDS011;42162;51.958;5.426;2023-11-21T01:23:34;25.90;;;5.05;;
55762;SDS011;42162;51.958;5.426;2023-11-21T01:26:01;30.63;;;4.93;;
55762;SDS011;42162;51.958;5.426;2023-11-21T01:28:30;46.95;;;5.78;;
55762;SDS011;42162;51.958;5.426;2023-11-21T01:30:57;96.95;;;7.13;;
55762;SDS011;42162;51.958;5.426;2023-11-21T01:33:24;83.88;;;6.18;;
55762;SDS011;42162;51.958;5.426;2023-11-21T01:35:52;132.70;;;6.10;;
55762;SDS011;42162;51.958;5.426;2023-11-21T01:38:22;159.07;;;5.75;;
55762;SDS011;42162;51.958;5.426;2023-11-21T01:40:49;130.05;;;5.78;;
55762;SDS011;42162;51.958;5.426;2023-11-21T01:43:17;91.85;;;4.50;;
55762;SDS011;42162;51.958;5.426;2023-11-21T01:45:44;45.72;;;4.25;;
55762;SDS011;42162;51.958;5.426;2023-11-21T01:48:15;39.53;;;4.30;;
55762;SDS011;42162;51.958;5.426;2023-11-21T01:50:43;40.88;;;4.30;;
55762;SDS011;42162;51.958;5.426;2023-11-21T01:53:12;31.33;;;4.40;;
55762;SDS011;42162;51.958;5.426;2023-11-21T01:55:42;32.88;;;4.72;;
55762;SDS011;42162;51.958;5.426;2023-11-21T01:58:11;55.28;;;4.10;;
55762;SDS011;42162;51.958;5.426;2023-11-21T02:00:39;23.13;;;3.83;;
55762;SDS011;42162;51.958;5.426;2023-11-21T02:03:06;37.33;;;4.40;;
55762;SDS011;42162;51.958;5.426;2023-11-21T02:05:34;44.15;;;4.53;;
55762;SDS011;42162;51.958;5.426;2023-11-21T02:08:01;23.67;;;3.65;;
55762;SDS011;42162;51.958;5.426;2023-11-21T02:10:30;14.27;;;4.10;;
55762;SDS011;42162;51.958;5.426;2023-11-21T02:12:59;4.55;;;3.47;;
55762;SDS011;42162;51.958;5.426;2023-11-21T02:15:29;10.23;;;3.80;;
55762;SDS011;42162;51.958;5.426;2023-11-21T02:17:57;11.35;;;4.22;;
55762;SDS011;42162;51.958;5.426;2023-11-21T02:20:28;10.18;;;4.30;;
55762;SDS011;42162;51.958;5.426;2023-11-21T02:22:57;20.25;;;4.35;;
55762;SDS011;42162;51.958;5.426;2023-11-21T02:25:25;6.25;;;4.32;;
55762;SDS011;42162;51.958;5.426;2023-11-21T02:27:57;22.05;;;4.95;;
55762;SDS011;42162;51.958;5.426;2023-11-21T02:30:25;7.78;;;5.35;;
55762;SDS011;42162;51.958;5.426;2023-11-21T02:32:55;14.00;;;5.10;;
55762;SDS011;42162;51.958;5.426;2023-11-21T02:35:25;10.70;;;5.57;;
55762;SDS011;42162;51.958;5.426;2023-11-21T02:37:55;6.07;;;4.93;;
55762;SDS011;42162;51.958;5.426;2023-11-21T02:40:23;7.88;;;5.78;;
55762;SDS011;42162;51.958;5.426;2023-11-21T02:42:52;16.60;;;6.32;;
55762;SDS011;42162;51.958;5.426;2023-11-21T02:45:20;20.48;;;5.95;;
55762;SDS011;42162;51.958;5.426;2023-11-21T02:47:50;8.57;;;5.70;;
55762;SDS011;42162;51.958;5.426;2023-11-21T02:50:17;8.63;;;5.78;;
55762;SDS011;42162;51.958;5.426;2023-11-21T02:52:46;8.27;;;6.10;;
55762;SDS011;42162;51.958;5.426;2023-11-21T02:55:13;10.57;;;5.68;;
55762;SDS011;42162;51.958;5.426;2023-11-21T02:57:43;10.55;;;6.88;;
55762;SDS011;42162;51.958;5.426;2023-11-21T03:00:13;11.43;;;6.75;;
55762;SDS011;42162;51.958;5.426;2023-11-21T03:02:42;12.52;;;6.68;;
55762;SDS011;42162;51.958;5.426;2023-11-21T03:05:10;10.60;;;7.05;;
55762;SDS011;42162;51.958;5.426;2023-11-21T03:07:38;10.95;;;7.30;;
55762;SDS011;42162;51.958;5.426;2023-11-21T03:10:07;10.02;;;6.70;;
55762;SDS011;42162;51.958;5.426;2023-11-21T03:12:39;11.13;;;6.80;;
55762;SDS011;42162;51.958;5.426;2023-11-21T03:15:07;11.13;;;6.68;;
55762;SDS011;42162;51.958;5.426;2023-11-21T03:17:36;8.73;;;6.10;;
55762;SDS011;42162;51.958;5.426;2023-11-21T03:20:04;10.48;;;6.47;;
55762;SDS011;42162;51.958;5.426;2023-11-21T03:22:31;11.73;;;6.70;;
55762;SDS011;42162;51.958;5.426;2023-11-21T03:25:00;11.52;;;7.13;;
55762;SDS011;42162;51.958;5.426;2023-11-21T03:27:27;8.57;;;5.78;;
55762;SDS011;42162;51.958;5.426;2023-11-21T03:29:54;9.00;;;5.68;;
55762;SDS011;42162;51.958;5.426;2023-11-21T03:32:22;8.23;;;5.80;;
55762;SDS011;42162;51.958;5.426;2023-11-21T03:34:54;6.38;;;5.20;;
55762;SDS011;42162;51.958;5.426;2023-11-21T03:37:25;6.55;;;4.97;;
55762;SDS011;42162;51.958;5.426;2023-11-21T03:39:55;8.13;;;6.00;;
55762;SDS011;42162;51.958;5.426;2023-11-21T03:42:23;8.40;;;5.80;;
55762;SDS011;42162;51.958;5.426;2023-11-21T03:44:53;7.57;;;5.47;;
55762;SDS011;42162;51.958;5.426;2023-11-21T03:47:21;9.75;;;6.20;;
55762;SDS011;42162;51.958;5.426;2023-11-21T03:49:48;7.72;;;5.70;;
55762;SDS011;42162;51.958;5.426;2023-11-21T03:52:15;8.02;;;6.32;;
55762;SDS011;42162;51.958;5.426;2023-11-21T03:54:43;9.13;;;6.40;;
55762;SDS011;42162;51.958;5.426;2023-11-21T03:57:11;9.43;;;6.25;;
55762;SDS011;42162;51.958;5.426;2023-11-21T03:59:42;6.72;;;5.32;;
55762;SDS011;42162;51.958;5.426;2023-11-21T04:02:10;8.23;;;5.85;;
55762;SDS011;42162;51.958;5.426;2023-11-21T04:04:37;12.45;;;6.65;;
55762;SDS011;42162;51.958;5.426;2023-11-21T04:07:05;8.98;;;5.10;;
55762;SDS011;42162;51.958;5.426;2023-11-21T04:09:32;8.10;;;6.13;;
55762;SDS011;42162;51.958;5.426;2023-11-21T04:11:59;7.78;;;5.32;;
55762;SDS011;42162;51.958;5.426;2023-11-21T04:14:26;10.48;;;6.45;;
55762;SDS011;42162;51.958;5.426;2023-11-21T04:16:53;10.15;;;6.80;;
55762;SDS011;42162;51.958;5.426;2023-11-21T04:19:21;8.70;;;6.15;;
55762;SDS011;42162;51.958;5.426;2023-11-21T04:21:48;8.70;;;6.45;;
55762;SDS011;42162;51.958;5.426;2023-11-21T04:24:18;8.90;;;6.50;;
55762;SDS011;42162;51.958;5.426;2023-11-21T04:26:45;9.10;;;5.60;;
55762;SDS011;42162;51.958;5.426;2023-11-21T04:29:12;8.70;;;6.93;;
55762;SDS011;42162;51.958;5.426;2023-11-21T04:31:39;9.25;;;5.70;;
55762;SDS011;42162;51.958;5.426;2023-11-21T04:34:06;11.55;;;7.05;;
55762;SDS011;42162;51.958;5.426;2023-11-21T04:36:34;8.88;;;6.47;;
55762;SDS011;42162;51.958;5.426;2023-11-21T04:39:02;7.78;;;6.20;;
55762;SDS011;42162;51.958;5.426;2023-11-21T04:41:29;12.68;;;6.95;;
55762;SDS011;42162;51.958;5.426;2023-11-21T04:43:58;8.88;;;6.10;;
55762;SDS011;42162;51.958;5.426;2023-11-21T04:46:29;9.18;;;6.15;;
55762;SDS011;42162;51.958;5.426;2023-11-21T04:48:57;14.32;;;7.15;;
55762;SDS011;42162;51.958;5.426;2023-11-21T04:51:24;11.15;;;6.68;;
55762;SDS011;42162;51.958;5.426;2023-11-21T04:53:51;9.05;;;6.35;;
55762;SDS011;42162;51.958;5.426;2023-11-21T04:56:19;9.32;;;6.65;;
55762;SDS011;42162;51.958;5.426;2023-11-21T04:58:46;11.43;;;6.43;;
55762;SDS011;42162;51.958;5.426;2023-11-21T05:01:13;11.10;;;7.03;;
55762;SDS011;42162;51.958;5.426;2023-11-21T05:03:40;11.85;;;6.70;;
55762;SDS011;42162;51.958;5.426;2023-11-21T05:06:11;9.18;;;6.35;;
55762;SDS011;42162;51.958;5.426;2023-11-21T05:08:38;12.55;;;6.63;;
55762;SDS011;42162;51.958;5.426;2023-11-21T05:11:05;10.50;;;6.82;;
55762;SDS011;42162;51.958;5.426;2023-11-21T05:13:34;9.35;;;5.10;;
55762;SDS011;42162;51.958;5.426;2023-11-21T05:16:02;10.73;;;6.32;;
55762;SDS011;42162;51.958;5.426;2023-11-21T05:18:31;9.68;;;6.13;;
55762;SDS011;42162;51.958;5.426;2023-11-21T05:20:58;13.63;;;6.85;;
55762;SDS011;42162;51.958;5.426;2023-11-21T05:23:25;9.25;;;6.35;;
55762;SDS011;42162;51.958;5.426;2023-11-21T05:25:52;10.10;;;6.03;;
55762;SDS011;42162;51.958;5.426;2023-11-21T05:28:19;8.18;;;5.65;;
55762;SDS011;42162;51.958;5.426;2023-11-21T05:30:47;10.27;;;5.60;;
55762;SDS011;42162;51.958;5.426;2023-11-21T05:33:14;9.77;;;6.20;;
55762;SDS011;42162;51.958;5.426;2023-11-21T05:35:41;9.88;;;5.95;;
55762;SDS011;42162;51.958;5.426;2023-11-21T05:38:08;9.38;;;5.72;;
55762;SDS011;42162;51.958;5.426;2023-11-21T05:40:36;10.68;;;5.90;;
55762;SDS011;42162;51.958;5.426;2023-11-21T05:43:04;10.10;;;6.75;;
55762;SDS011;42162;51.958;5.426;2023-11-21T05:45:32;9.63;;;6.95;;
55762;SDS011;42162;51.958;5.426;2023-11-21T05:47:59;12.48;;;7.00;;
55762;SDS011;42162;51.958;5.426;2023-11-21T05:50:26;10.85;;;6.28;;
55762;SDS011;42162;51.958;5.426;2023-11-21T05:52:53;12.13;;;7.88;;
55762;SDS011;42162;51.958;5.426;2023-11-21T05:55:22;11.18;;;7.18;;
55762;SDS011;42162;51.958;5.426;2023-11-21T05:57:52;10.67;;;7.03;;
55762;SDS011;42162;51.958;5.426;2023-11-21T06:00:20;14.75;;;8.57;;
55762;SDS011;42162;51.958;5.426;2023-11-21T06:02:52;11.60;;;7.93;;
55762;SDS011;42162;51.958;5.426;2023-11-21T06:05:24;10.07;;;6.47;;
55762;SDS011;42162;51.958;5.426;2023-11-21T06:07:54;12.55;;;6.55;;
55762;SDS011;42162;51.958;5.426;2023-11-21T06:10:26;14.65;;;7.15;;
55762;SDS011;42162;51.958;5.426;2023-11-21T06:12:55;12.75;;;7.70;;
55762;SDS011;42162;51.958;5.426;2023-11-21T06:15:29;12.00;;;7.38;;
55762;SDS011;42162;51.958;5.426;2023-11-21T06:17:56;15.13;;;7.25;;
55762;SDS011;42162;51.958;5.426;2023-11-21T06:20:24;12.32;;;8.38;;
55762;SDS011;42162;51.958;5.426;2023-11-21T06:22:51;11.95;;;7.07;;
55762;SDS011;42162;51.958;5.426;2023-11-21T06:25:19;11.35;;;7.30;;
55762;SDS011;42162;51.958;5.426;2023-11-21T06:27:47;13.88;;;7.22;;
55762;SDS011;42162;51.958;5.426;2023-11-21T06:30:15;11.73;;;7.88;;
55762;SDS011;42162;51.958;5.426;2023-11-21T06:32:43;11.40;;;7.45;;
55762;SDS011;42162;51.958;5.426;2023-11-21T06:35:14;10.88;;;7.38;;
55762;SDS011;42162;51.958;5.426;2023-11-21T06:37:44;10.38;;;7.75;;
55762;SDS011;42162;51.958;5.426;2023-11-21T06:40:16;12.93;;;6.07;;
55762;SDS011;42162;51.958;5.426;2023-11-21T06:42:48;13.30;;;8.00;;
55762;SDS011;42162;51.958;5.426;2023-11-21T06:45:16;16.30;;;8.25;;
55762;SDS011;42162;51.958;5.426;2023-11-21T06:47:43;13.55;;;7.60;;
55762;SDS011;42162;51.958;5.426;2023-11-21T06:50:14;13.38;;;8.63;;
55762;SDS011;42162;51.958;5.426;2023-11-21T06:52:41;14.23;;;7.28;;
55762;SDS011;42162;51.958;5.426;2023-11-21T06:55:12;15.35;;;8.82;;
55762;SDS011;42162;51.958;5.426;2023-11-21T06:57:39;15.05;;;8.20;;
55762;SDS011;42162;51.958;5.426;2023-11-21T07:00:07;15.60;;;8.52;;
55762;SDS011;42162;51.958;5.426;2023-11-21T07:02:38;16.08;;;7.93;;
55762;SDS011;42162;51.958;5.426;2023-11-21T07:05:06;12.15;;;7.80;;
55762;SDS011;42162;51.958;5.426;2023-11-21T07:07:33;13.38;;;7.55;;
55762;SDS011;42162;51.958;5.426;2023-11-21T07:10:03;16.80;;;7.25;;
55762;SDS011;42162;51.958;5.426;2023-11-21T07:12:30;16.13;;;7.38;;
55762;SDS011;42162;51.958;5.426;2023-11-21T07:14:58;14.05;;;7.70;;
55762;SDS011;42162;51.958;5.426;2023-11-21T07:17:25;13.60;;;8.02;;
55762;SDS011;42162;51.958;5.426;2023-11-21T07:19:52;13.77;;;7.30;;
55762;SDS011;42162;51.958;5.426;2023-11-21T07:22:19;13.55;;;7.28;;
55762;SDS011;42162;51.958;5.426;2023-11-21T07:24:49;12.63;;;7.85;;
55762;SDS011;42162;51.958;5.426;2023-11-21T07:27:19;14.95;;;8.18;;
55762;SDS011;42162;51.958;5.426;2023-11-21T07:29:46;15.25;;;7.53;;
55762;SDS011;42162;51.958;5.426;2023-11-21T07:32:15;16.65;;;9.43;;
55762;SDS011;42162;51.958;5.426;2023-11-21T07:34:43;18.42;;;9.10;;
55762;SDS011;42162;51.958;5.426;2023-11-21T07:37:10;19.35;;;8.88;;
55762;SDS011;42162;51.958;5.426;2023-11-21T07:39:37;21.75;;;9.10;;
55762;SDS011;42162;51.958;5.426;2023-11-21T07:42:09;16.52;;;8.38;;
55762;SDS011;42162;51.958;5.426;2023-11-21T07:44:37;15.63;;;8.88;;
55762;SDS011;42162;51.958;5.426;2023-11-21T07:47:04;12.77;;;8.18;;
55762;SDS011;42162;51.958;5.426;2023-11-21T07:49:32;11.80;;;7.97;;
55762;SDS011;42162;51.958;5.426;2023-11-21T07:51:59;14.23;;;8.13;;
55762;SDS011;42162;51.958;5.426;2023-11-21T07:54:27;14.93;;;8.35;;
55762;SDS011;42162;51.958;5.426;2023-11-21T07:56:54;19.73;;;8.48;;
55762;SDS011;42162;51.958;5.426;2023-11-21T07:59:21;12.07;;;7.85;;
55762;SDS011;42162;51.958;5.426;2023-11-21T08:01:49;13.15;;;7.03;;
55762;SDS011;42162;51.958;5.426;2023-11-21T08:04:16;13.45;;;7.45;;
55762;SDS011;42162;51.958;5.426;2023-11-21T08:06:45;11.43;;;7.15;;
55762;SDS011;42162;51.958;5.426;2023-11-21T08:09:12;15.77;;;7.55;;
55762;SDS011;42162;51.958;5.426;2023-11-21T08:11:40;10.43;;;6.88;;
55762;SDS011;42162;51.958;5.426;2023-11-21T08:14:07;11.32;;;6.88;;
55762;SDS011;42162;51.958;5.426;2023-11-21T08:16:34;14.95;;;7.90;;
55762;SDS011;42162;51.958;5.426;2023-11-21T08:19:01;12.68;;;6.20;;
55762;SDS011;42162;51.958;5.426;2023-11-21T08:21:29;15.55;;;7.90;;
55762;SDS011;42162;51.958;5.426;2023-11-21T08:23:58;9.60;;;6.38;;
55762;SDS011;42162;51.958;5.426;2023-11-21T08:26:25;12.32;;;6.20;;
55762;SDS011;42162;51.958;5.426;2023-11-21T08:28:52;16.25;;;8.57;;
55762;SDS011;42162;51.958;5.426;2023-11-21T08:31:23;15.23;;;7.45;;
55762;SDS011;42162;51.958;5.426;2023-11-21T08:33:52;17.92;;;8.52;;
55762;SDS011;42162;51.958;5.426;2023-11-21T08:36:22;17.35;;;7.65;;
55762;SDS011;42162;51.958;5.426;2023-11-21T08:38:51;12.02;;;7.03;;
55762;SDS011;42162;51.958;5.426;2023-11-21T08:41:21;16.63;;;8.25;;
55762;SDS011;42162;51.958;5.426;2023-11-21T08:43:52;17.60;;;8.95;;
55762;SDS011;42162;51.958;5.426;2023-11-21T08:46:20;16.33;;;7.55;;
55762;SDS011;42162;51.958;5.426;2023-11-21T08:48:48;15.85;;;7.80;;
55762;SDS011;42162;51.958;5.426;2023-11-21T08:51:15;10.57;;;6.18;;
55762;SDS011;42162;51.958;5.426;2023-11-21T08:53:43;12.65;;;6.78;;
55762;SDS011;42162;51.958;5.426;2023-11-21T08:56:13;14.13;;;7.55;;
55762;SDS011;42162;51.958;5.426;2023-11-21T08:58:41;12.65;;;7.07;;
55762;SDS011;42162;51.958;5.426;2023-11-21T09:01:08;10.57;;;6.68;;
55762;SDS011;42162;51.958;5.426;2023-11-21T09:03:35;14.05;;;6.80;;
55762;SDS011;42162;51.958;5.426;2023-11-21T09:06:03;16.27;;;7.63;;
55762;SDS011;42162;51.958;5.426;2023-11-21T09:08:31;10.98;;;6.63;;
55762;SDS011;42162;51.958;5.426;2023-11-21T09:10:58;14.18;;;8.02;;
55762;SDS011;42162;51.958;5.426;2023-11-21T09:13:26;9.13;;;6.57;;
55762;SDS011;42162;51.958;5.426;2023-11-21T09:15:53;11.23;;;7.25;;
55762;SDS011;42162;51.958;5.426;2023-11-21T09:18:20;13.48;;;7.13;;
55762;SDS011;42162;51.958;5.426;2023-11-21T09:20:47;18.17;;;7.68;;
55762;SDS011;42162;51.958;5.426;2023-11-21T09:23:15;13.48;;;6.65;;
55762;SDS011;42162;51.958;5.426;2023-11-21T09:25:42;10.05;;;5.10;;
55762;SDS011;42162;51.958;5.426;2023-11-21T09:28:13;10.52;;;6.63;;
55762;SDS011;42162;51.958;5.426;2023-11-21T09:30:40;11.73;;;5.80;;
55762;SDS011;42162;51.958;5.426;2023-11-21T09:33:08;16.30;;;7.97;;
55762;SDS011;42162;51.958;5.426;2023-11-21T09:35:38;13.30;;;7.82;;
55762;SDS011;42162;51.958;5.426;2023-11-21T09:38:05;8.65;;;5.93;;
55762;SDS011;42162;51.958;5.426;2023-11-21T09:40:37;10.45;;;7.05;;
55762;SDS011;42162;51.958;5.426;2023-11-21T09:43:38;15.10;;;8.02;;
55762;SDS011;42162;51.958;5.426;2023-11-21T09:45:59;8.88;;;5.57;;
55762;SDS011;42162;51.958;5.426;2023-11-21T09:48:29;10.80;;;6.32;;
55762;SDS011;42162;51.958;5.426;2023-11-21T09:50:57;11.40;;;6.60;;
55762;SDS011;42162;51.958;5.426;2023-11-21T09:53:26;11.88;;;6.57;;
55762;SDS011;42162;51.958;5.426;2023-11-21T09:55:56;12.52;;;5.85;;
55762;SDS011;42162;51.958;5.426;2023-11-21T09:58:23;11.23;;;6.07;;
55762;SDS011;42162;51.958;5.426;2023-11-21T10:00:55;13.68;;;7.03;;
55762;SDS011;42162;51.958;5.426;2023-11-21T10:03:24;11.45;;;7.10;;
55762;SDS011;42162;51.958;5.426;2023-11-21T10:05:52;10.90;;;7.20;;
55762;SDS011;42162;51.958;5.426;2023-11-21T10:08:20;10.38;;;6.80;;
55762;SDS011;42162;51.958;5.426;2023-11-21T10:10:51;9.52;;;7.00;;
55762;SDS011;42162;51.958;5.426;2023-11-21T10:13:20;9.23;;;6.70;;
55762;SDS011;42162;51.958;5.426;2023-11-21T10:15:49;9.10;;;6.38;;
55762;SDS011;42162;51.958;5.426;2023-11-21T10:18:17;12.35;;;8.48;;
55762;SDS011;42162;51.958;5.426;2023-11-21T10:20:44;10.35;;;7.40;;
55762;SDS011;42162;51.958;5.426;2023-11-21T10:23:20;10.48;;;7.97;;
55762;SDS011;42162;51.958;5.426;2023-11-21T10:25:50;11.80;;;8.30;;
55762;SDS011;42162;51.958;5.426;2023-11-21T10:28:20;13.57;;;8.38;;
55762;SDS011;42162;51.958;5.426;2023-11-21T10:30:48;10.13;;;7.22;;
55762;SDS011;42162;51.958;5.426;2023-11-21T10:33:15;15.77;;;10.13;;
55762;SDS011;42162;51.958;5.426;2023-11-21T10:35:47;16.33;;;9.63;;
55762;SDS011;42162;51.958;5.426;2023-11-21T10:38:18;13.75;;;9.68;;
55762;SDS011;42162;51.958;5.426;2023-11-21T10:40:49;13.98;;;9.50;;
55762;SDS011;42162;51.958;5.426;2023-11-21T10:43:18;12.05;;;8.55;;
55762;SDS011;42162;51.958;5.426;2023-11-21T10:45:45;13.13;;;8.82;;
55762;SDS011;42162;51.958;5.426;2023-11-21T10:48:13;15.43;;;10.27;;
55762;SDS011;42162;51.958;5.426;2023-11-21T10:50:46;13.27;;;8.13;;
55762;SDS011;42162;51.958;5.426;2023-11-21T10:53:14;10.18;;;7.88;;
55762;SDS011;42162;51.958;5.426;2023-11-21T10:55:42;11.18;;;7.95;;
55762;SDS011;42162;51.958;5.426;2023-11-21T10:58:13;11.73;;;8.05;;
55762;SDS011;42162;51.958;5.426;2023-11-21T11:00:41;10.90;;;8.00;;
55762;SDS011;42162;51.958;5.426;2023-11-21T11:03:12;13.38;;;10.18;;
55762;SDS011;42162;51.958;5.426;2023-11-21T11:05:43;12.13;;;8.55;;
55762;SDS011;42162;51.958;5.426;2023-11-21T11:08:21;11.05;;;8.32;;
55762;SDS011;42162;51.958;5.426;2023-11-21T11:10:54;13.95;;;9.18;;
55762;SDS011;42162;51.958;5.426;2023-11-21T11:13:23;12.23;;;8.82;;
55762;SDS011;42162;51.958;5.426;2023-11-21T11:15:52;16.80;;;9.30;;
55762;SDS011;42162;51.958;5.426;2023-11-21T11:18:27;10.32;;;8.38;;
55762;SDS011;42162;51.958;5.426;2023-11-21T11:21:07;11.02;;;8.13;;
55762;SDS011;42162;51.958;5.426;2023-11-21T11:34:50;10.63;;;7.28;;
55762;SDS011;42162;51.958;5.426;2023-11-21T11:37:25;10.38;;;6.82;;
55762;SDS011;42162;51.958;5.426;2023-11-21T11:39:54;8.75;;;6.32;;
55762;SDS011;42162;51.958;5.426;2023-11-21T11:42:21;11.68;;;8.88;;
55762;SDS011;42162;51.958;5.426;2023-11-21T11:44:50;10.07;;;6.35;;
55762;SDS011;42162;51.958;5.426;2023-11-21T11:52:50;10.80;;;6.55;;
55762;SDS011;42162;51.958;5.426;2023-11-21T11:55:23;10.57;;;6.22;;
55762;SDS011;42162;51.958;5.426;2023-11-21T11:57:52;11.53;;;7.20;;
55762;SDS011;42162;51.958;5.426;2023-11-21T12:02:54;10.57;;;7.57;;
55762;SDS011;42162;51.958;5.426;2023-11-21T12:05:24;10.63;;;8.00;;
55762;SDS011;42162;51.958;5.426;2023-11-21T12:07:55;11.13;;;7.47;;
55762;SDS011;42162;51.958;5.426;2023-11-21T12:10:25;8.70;;;6.95;;
55762;SDS011;42162;51.958;5.426;2023-11-21T12:12:56;10.38;;;7.03;;
55762;SDS011;42162;51.958;5.426;2023-11-21T12:17:58;11.00;;;6.53;;
55762;SDS011;42162;51.958;5.426;2023-11-21T12:20:26;8.57;;;4.93;;
55762;SDS011;42162;51.958;5.426;2023-11-21T12:22:55;8.43;;;4.72;;
55762;SDS011;42162;51.958;5.426;2023-11-21T12:25:29;9.80;;;5.30;;
55762;SDS011;42162;51.958;5.426;2023-11-21T12:28:01;10.55;;;6.32;;
55762;SDS011;42162;51.958;5.426;2023-11-21T12:30:30;12.02;;;5.72;;
55762;SDS011;42162;51.958;5.426;2023-11-21T12:32:59;10.32;;;5.90;;
55762;SDS011;42162;51.958;5.426;2023-11-21T12:35:31;9.32;;;5.35;;
55762;SDS011;42162;51.958;5.426;2023-11-21T12:38:01;10.73;;;5.22;;
55762;SDS011;42162;51.958;5.426;2023-11-21T12:40:30;11.18;;;5.63;;
55762;SDS011;42162;51.958;5.426;2023-11-21T12:42:58;14.60;;;7.75;;
55762;SDS011;42162;51.958;5.426;2023-11-21T12:45:27;11.93;;;7.05;;
55762;SDS011;42162;51.958;5.426;2023-11-21T12:47:57;11.93;;;7.32;;
55762;SDS011;42162;51.958;5.426;2023-11-21T12:50:27;12.23;;;7.38;;
55762;SDS011;42162;51.958;5.426;2023-11-21T12:53:02;9.45;;;6.25;;
55762;SDS011;42162;51.958;5.426;2023-11-21T12:55:32;9.05;;;6.45;;
55762;SDS011;42162;51.958;5.426;2023-11-21T13:00:38;11.73;;;6.10;;
55762;SDS011;42162;51.958;5.426;2023-11-21T13:03:10;9.55;;;6.43;;
55762;SDS011;42162;51.958;5.426;2023-11-21T13:05:40;11.15;;;7.20;;
55762;SDS011;42162;51.958;5.426;2023-11-21T13:08:19;10.57;;;6.85;;
55762;SDS011;42162;51.958;5.426;2023-11-21T13:10:53;9.20;;;6.63;;
55762;SDS011;42162;51.958;5.426;2023-11-21T13:13:24;11.32;;;7.88;;
55762;SDS011;42162;51.958;5.426;2023-11-21T13:15:56;13.95;;;8.60;;
55762;SDS011;42162;51.958;5.426;2023-11-21T13:18:28;15.02;;;8.95;;
55762;SDS011;42162;51.958;5.426;2023-11-21T13:20:57;10.05;;;6.75;;
55762;SDS011;42162;51.958;5.426;2023-11-21T13:23:42;11.27;;;8.02;;
55762;SDS011;42162;51.958;5.426;2023-11-21T13:26:09;12.90;;;9.23;;
55762;SDS011;42162;51.958;5.426;2023-11-21T13:28:37;12.55;;;8.43;;
55762;SDS011;42162;51.958;5.426;2023-11-21T13:31:05;9.48;;;7.00;;
55762;SDS011;42162;51.958;5.426;2023-11-21T13:33:53;13.82;;;7.38;;
55762;SDS011;42162;51.958;5.426;2023-11-21T13:36:31;10.70;;;7.95;;
55762;SDS011;42162;51.958;5.426;2023-11-21T13:39:03;10.30;;;7.53;;
55762;SDS011;42162;51.958;5.426;2023-11-21T13:41:42;11.38;;;7.70;;
55762;SDS011;42162;51.958;5.426;2023-11-21T13:44:10;9.98;;;7.65;;
55762;SDS011;42162;51.958;5.426;2023-11-21T13:46:54;9.35;;;6.30;;
55762;SDS011;42162;51.958;5.426;2023-11-21T13:49:24;9.43;;;6.70;;
55762;SDS011;42162;51.958;5.426;2023-11-21T13:51:52;8.57;;;6.47;;
55762;SDS011;42162;51.958;5.426;2023-11-21T13:54:22;9.30;;;7.03;;
55762;SDS011;42162;51.958;5.426;2023-11-21T13:56:52;9.82;;;7.13;;
55762;SDS011;42162;51.958;5.426;2023-11-21T13:59:19;10.60;;;7.68;;
55762;SDS011;42162;51.958;5.426;2023-11-21T14:01:50;10.50;;;6.78;;
55762;SDS011;42162;51.958;5.426;2023-11-21T14:04:27;10.73;;;7.82;;
55762;SDS011;42162;51.958;5.426;2023-11-21T14:06:57;11.40;;;8.23;;
55762;SDS011;42162;51.958;5.426;2023-11-21T14:09:29;11.88;;;7.35;;
55762;SDS011;42162;51.958;5.426;2023-11-21T14:12:11;9.05;;;6.60;;
55762;SDS011;42162;51.958;5.426;2023-11-21T14:14:42;11.23;;;8.70;;
55762;SDS011;42162;51.958;5.426;2023-11-21T14:17:11;11.02;;;6.85;;
55762;SDS011;42162;51.958;5.426;2023-11-21T14:19:38;9.43;;;6.65;;
55762;SDS011;42162;51.958;5.426;2023-11-21T14:22:10;9.18;;;6.68;;
55762;SDS011;42162;51.958;5.426;2023-11-21T14:24:38;8.68;;;5.82;;
55762;SDS011;42162;51.958;5.426;2023-11-21T14:29:38;8.95;;;5.95;;
55762;SDS011;42162;51.958;5.426;2023-11-21T14:32:09;8.32;;;4.63;;
55762;SDS011;42162;51.958;5.426;2023-11-21T14:34:36;9.98;;;6.10;;
55762;SDS011;42162;51.958;5.426;2023-11-21T14:37:05;7.45;;;5.43;;
55762;SDS011;42162;51.958;5.426;2023-11-21T14:39:32;6.75;;;5.18;;
55762;SDS011;42162;51.958;5.426;2023-11-21T14:42:04;6.75;;;4.40;;
55762;SDS011;42162;51.958;5.426;2023-11-21T14:44:34;5.65;;;4.53;;
55762;SDS011;42162;51.958;5.426;2023-11-21T14:47:05;4.65;;;3.55;;
55762;SDS011;42162;51.958;5.426;2023-11-21T14:49:42;8.32;;;4.70;;
55762;SDS011;42162;51.958;5.426;2023-11-21T14:52:20;7.13;;;4.53;;
55762;SDS011;42162;51.958;5.426;2023-11-21T14:55:05;6.90;;;4.70;;
55762;SDS011;42162;51.958;5.426;2023-11-21T14:57:55;9.35;;;6.43;;
55762;SDS011;42162;51.958;5.426;2023-11-21T15:00:22;8.63;;;6.15;;
55762;SDS011;42162;51.958;5.426;2023-11-21T15:03:08;10.85;;;7.13;;
55762;SDS011;42162;51.958;5.426;2023-11-21T15:05:36;10.85;;;7.45;;
55762;SDS011;42162;51.958;5.426;2023-11-21T15:08:05;12.52;;;7.60;;
55762;SDS011;42162;51.958;5.426;2023-11-21T15:10:59;14.52;;;9.65;;
55762;SDS011;42162;51.958;5.426;2023-11-21T15:13:29;16.00;;;10.52;;
55762;SDS011;42162;51.958;5.426;2023-11-21T15:15:58;15.27;;;10.20;;
55762;SDS011;42162;51.958;5.426;2023-11-21T15:18:34;13.00;;;9.32;;